createdAt,value
2022-08-28T00:02:01.332Z,98485.66
2022-08-28T00:07:23.029Z,98480.75
2022-08-28T00:12:47.550Z,98485.75
2022-08-28T00:18:09.300Z,98488.09
2022-08-28T00:23:42.473Z,98500.69
2022-08-28T00:29:06.094Z,98501.47
2022-08-28T00:34:32.930Z,98491.63
2022-08-28T00:39:55.442Z,98504.94
2022-08-28T00:45:19.828Z,98493.59
2022-08-28T00:51:01.000Z,98486.25
2022-08-28T00:56:22.826Z,98478.53
2022-08-28T01:01:46.132Z,98478.28
2022-08-28T01:07:10.646Z,98470.91
2022-08-28T01:12:33.590Z,98476.97
2022-08-28T01:18:04.688Z,98488.16
2022-08-28T01:23:42.362Z,98485.25
2022-08-28T01:29:04.317Z,98484.59
2022-08-28T01:34:26.382Z,98489.38
2022-08-28T01:39:48.171Z,98482.38
2022-08-28T01:45:15.853Z,98483.78
2022-08-28T01:50:38.086Z,98484.03
2022-08-28T01:56:04.669Z,98483.00
2022-08-28T02:01:26.600Z,98481.88
2022-08-28T02:06:48.337Z,98493.75
2022-08-28T02:12:10.159Z,98493.19
2022-08-28T02:17:32.950Z,98494.59
2022-08-28T02:22:55.901Z,98490.28
2022-08-28T02:28:17.615Z,98487.38
2022-08-28T02:33:42.984Z,98487.91
2022-08-28T02:39:04.704Z,98495.28
2022-08-28T02:44:26.421Z,98501.13
2022-08-28T02:49:48.182Z,98494.53
2022-08-28T02:55:12.572Z,98490.47
2022-08-28T03:00:34.342Z,98494.53
2022-08-28T03:05:56.049Z,98491.25
2022-08-28T03:11:17.802Z,98489.66
2022-08-28T03:16:40.030Z,98487.63
2022-08-28T03:22:01.808Z,98485.66
2022-08-28T03:27:23.538Z,98486.44
2022-08-28T03:32:45.284Z,98489.28
2022-08-28T03:38:07.080Z,98488.41
2022-08-28T03:43:29.013Z,98499.56
2022-08-28T03:48:52.517Z,98496.78
2022-08-28T03:54:14.659Z,98495.53
2022-08-28T03:59:36.452Z,98498.31
2022-08-28T04:04:58.274Z,98495.38
2022-08-28T04:10:20.010Z,98502.41
2022-08-28T04:15:42.147Z,98498.75
2022-08-28T04:21:10.489Z,98496.16
2022-08-28T04:26:36.498Z,98503.69
2022-08-28T04:31:58.323Z,98502.97
2022-08-28T04:37:20.114Z,98510.03
2022-08-28T04:42:45.083Z,98501.00
2022-08-28T04:48:13.214Z,98509.41
2022-08-28T04:53:37.344Z,98510.47
2022-08-28T04:59:01.439Z,98510.59
2022-08-28T05:04:23.268Z,98517.00
2022-08-28T05:09:45.288Z,98514.91
2022-08-28T05:15:07.612Z,98520.34
2022-08-28T05:20:34.996Z,98519.97
2022-08-28T05:25:57.670Z,98527.78
2022-08-28T05:31:21.996Z,98530.81
2022-08-28T05:36:43.809Z,98529.59
2022-08-28T05:42:05.739Z,98530.28
2022-08-28T05:47:32.548Z,98534.16
2022-08-28T05:52:54.275Z,98532.19
2022-08-28T05:58:31.813Z,98535.28
2022-08-28T06:03:58.070Z,98537.63
2022-08-28T06:09:28.745Z,98542.41
2022-08-28T06:14:51.038Z,98548.69
2022-08-28T06:20:12.774Z,98547.94
2022-08-28T06:25:45.004Z,98550.84
2022-08-28T06:31:24.492Z,98550.16
2022-08-28T06:36:53.124Z,98560.09
2022-08-28T06:42:15.823Z,98566.97
2022-08-28T06:47:37.545Z,98569.84
2022-08-28T06:53:00.008Z,98568.59
2022-08-28T06:58:21.705Z,98570.38
2022-08-28T07:03:45.306Z,98573.16
2022-08-28T07:09:09.483Z,98580.13
2022-08-28T07:14:31.180Z,98580.84
2022-08-28T07:19:52.954Z,98581.75
2022-08-28T07:25:14.679Z,98593.91
2022-08-28T07:30:36.393Z,98585.09
2022-08-28T07:35:59.256Z,98594.13
2022-08-28T07:41:24.125Z,98604.16
2022-08-28T07:46:46.087Z,98609.22
2022-08-28T07:52:09.128Z,98615.22
2022-08-28T07:57:32.053Z,98621.91
2022-08-28T08:02:53.792Z,98616.59
2022-08-28T08:08:15.519Z,98618.66
2022-08-28T08:13:39.715Z,98630.13
2022-08-28T08:19:02.296Z,98625.94
2022-08-28T08:24:26.426Z,98633.59
2022-08-28T08:29:49.020Z,98645.72
2022-08-28T08:35:12.774Z,98645.72
2022-08-28T08:40:35.573Z,98654.69
2022-08-28T08:45:57.556Z,98653.78
2022-08-28T08:51:26.889Z,98651.66
2022-08-28T08:56:49.369Z,98652.47
2022-08-28T09:02:18.092Z,98661.66
2022-08-28T09:07:53.301Z,98670.00
2022-08-28T09:13:26.404Z,98672.19
2022-08-28T09:18:49.227Z,98668.81
2022-08-28T09:24:24.722Z,98656.38
2022-08-28T09:30:14.826Z,98666.69
2022-08-28T09:35:37.755Z,98658.66
2022-08-28T09:41:28.078Z,98666.72
2022-08-28T09:46:51.438Z,98665.22
2022-08-28T09:52:25.010Z,98665.00
2022-08-28T09:57:48.262Z,98671.69
2022-08-28T10:03:28.449Z,98675.69
2022-08-28T10:09:02.637Z,98678.03
2022-08-28T10:15:00.881Z,98673.09
2022-08-28T10:20:49.821Z,98670.34
2022-08-28T10:26:27.575Z,98671.50
2022-08-28T10:32:11.200Z,98670.44
2022-08-28T10:37:45.504Z,98674.72
2022-08-28T10:43:11.957Z,98673.25
2022-08-28T10:48:41.169Z,98670.09
2022-08-28T10:54:40.989Z,98666.34
2022-08-28T11:00:12.166Z,98662.50
2022-08-28T11:06:11.494Z,98658.25
2022-08-28T11:11:44.004Z,98667.00
2022-08-28T11:17:11.001Z,98669.91
2022-08-28T11:22:44.536Z,98667.38
2022-08-28T11:28:40.248Z,98670.69
2022-08-28T11:34:02.791Z,98671.06
2022-08-28T11:39:24.589Z,98657.97
2022-08-28T11:44:46.497Z,98658.63
2022-08-28T11:50:15.923Z,98658.97
2022-08-28T11:55:50.371Z,98660.19
2022-08-28T12:01:14.291Z,98656.63
2022-08-28T12:06:45.156Z,98669.94
2022-08-28T12:12:45.453Z,98662.13
2022-08-28T12:18:10.670Z,98662.00
2022-08-28T12:23:36.588Z,98659.66
2022-08-28T12:29:00.597Z,98660.63
2022-08-28T12:34:40.681Z,98654.31
2022-08-28T12:40:37.672Z,98649.34
2022-08-28T12:46:04.082Z,98650.00
2022-08-28T12:51:27.555Z,98641.66
2022-08-28T12:56:49.264Z,98646.34
2022-08-28T13:02:11.132Z,98637.19
2022-08-28T13:07:55.142Z,98645.69
2022-08-28T13:13:24.193Z,98646.69
2022-08-28T13:18:55.447Z,98637.50
2022-08-28T13:24:24.067Z,98634.81
2022-08-28T13:30:00.655Z,98625.34
2022-08-28T13:35:22.893Z,98631.84
2022-08-28T13:40:57.820Z,98623.50
2022-08-28T13:46:20.462Z,98617.34
2022-08-28T13:51:42.511Z,98618.34
2022-08-28T13:57:04.466Z,98610.97
2022-08-28T14:02:45.471Z,98610.16
2022-08-28T14:08:07.243Z,98609.84
2022-08-28T14:13:29.244Z,98605.16
2022-08-28T14:18:52.798Z,98600.81
2022-08-28T14:24:14.873Z,98598.81
2022-08-28T14:29:38.169Z,98584.25
2022-08-28T14:34:59.952Z,98582.19
2022-08-28T14:40:21.729Z,98585.38
2022-08-28T14:45:50.227Z,98588.63
2022-08-28T14:51:12.269Z,98585.59
2022-08-28T14:56:34.826Z,98582.09
2022-08-28T15:01:59.991Z,98576.75
2022-08-28T15:07:22.686Z,98568.09
2022-08-28T15:12:44.424Z,98568.22
2022-08-28T15:18:07.026Z,98573.81
2022-08-28T15:23:29.560Z,98571.72
2022-08-28T15:28:55.390Z,98575.94
2022-08-28T15:34:26.213Z,98578.25
2022-08-28T15:40:06.550Z,98578.44
2022-08-28T15:45:28.454Z,98564.59
2022-08-28T15:50:50.256Z,98559.78
2022-08-28T15:56:18.168Z,98569.59
2022-08-28T16:01:40.466Z,98565.88
2022-08-28T16:07:02.396Z,98563.25
2022-08-28T16:12:25.435Z,98566.28
2022-08-28T16:17:47.208Z,98564.59
2022-08-28T16:23:10.494Z,98567.72
2022-08-28T16:28:32.698Z,98570.25
2022-08-28T16:33:54.645Z,98565.88
2022-08-28T16:39:16.389Z,98563.22
2022-08-28T16:44:38.096Z,98566.69
2022-08-28T16:50:01.764Z,98570.38
2022-08-28T16:55:23.470Z,98572.38
2022-08-28T17:00:52.420Z,98573.06
2022-08-28T17:06:18.425Z,98573.78
2022-08-28T17:11:40.186Z,98577.28
2022-08-28T17:17:01.987Z,98572.59
2022-08-28T17:22:32.560Z,98581.28
2022-08-28T17:27:54.493Z,98585.13
2022-08-28T17:33:16.191Z,98585.47
2022-08-28T17:38:38.480Z,98596.31
2022-08-28T17:44:01.512Z,98596.66
2022-08-28T17:49:24.580Z,98600.81
2022-08-28T17:54:46.348Z,98610.00
2022-08-28T18:00:11.470Z,98617.69
2022-08-28T18:05:34.178Z,98615.66
2022-08-28T18:10:55.895Z,98618.00
2022-08-28T18:16:18.526Z,98623.81
2022-08-28T18:21:41.010Z,98629.66
2022-08-28T18:27:03.142Z,98634.16
2022-08-28T18:32:25.020Z,98639.47
2022-08-28T18:37:46.818Z,98654.47
2022-08-28T18:43:13.705Z,98659.28
2022-08-28T18:48:36.316Z,98672.72
2022-08-28T18:54:00.881Z,98672.84
2022-08-28T18:59:23.850Z,98679.97
2022-08-28T19:04:45.622Z,98693.41
2022-08-28T19:10:22.759Z,98707.38
2022-08-28T19:15:52.524Z,98715.00
2022-08-28T19:21:19.569Z,98710.84
2022-08-28T19:26:41.296Z,98710.66
2022-08-28T19:32:04.168Z,98715.63
2022-08-28T19:37:26.316Z,98723.88
2022-08-28T19:42:49.733Z,98715.69
2022-08-28T19:48:12.095Z,98718.66
2022-08-28T19:53:34.077Z,98715.88
2022-08-28T19:58:59.031Z,98720.97
2022-08-28T20:04:20.894Z,98717.63
2022-08-28T20:09:42.699Z,98731.00
2022-08-28T20:15:07.408Z,98737.94
2022-08-28T20:20:30.235Z,98741.34
2022-08-28T20:25:52.024Z,98740.00
2022-08-28T20:31:16.938Z,98736.75
2022-08-28T20:36:38.967Z,98740.94
2022-08-28T20:42:00.784Z,98743.03
2022-08-28T20:47:22.638Z,98749.06
2022-08-28T20:52:45.603Z,98748.81
2022-08-28T20:58:07.470Z,98744.53
2022-08-28T21:03:29.176Z,98752.69
2022-08-28T21:08:50.926Z,98753.44
2022-08-28T21:14:13.269Z,98759.72
2022-08-28T21:19:40.136Z,98752.41
2022-08-28T21:25:07.158Z,98762.41
2022-08-28T21:30:29.895Z,98770.72
2022-08-28T21:35:51.717Z,98772.72
2022-08-28T21:41:14.363Z,98776.31
2022-08-28T21:46:36.069Z,98774.75
2022-08-28T21:52:01.157Z,98782.88
2022-08-28T21:57:22.907Z,98774.50
2022-08-28T22:02:44.805Z,98779.09
2022-08-28T22:08:07.277Z,98774.94
2022-08-28T22:13:29.109Z,98771.19
2022-08-28T22:18:51.260Z,98776.91
2022-08-28T22:24:13.389Z,98774.84
2022-08-28T22:29:36.572Z,98781.13
2022-08-28T22:34:58.335Z,98783.66
2022-08-28T22:40:21.668Z,98782.47
2022-08-28T22:45:46.350Z,98780.56
2022-08-28T22:51:12.546Z,98777.22
2022-08-28T22:56:34.263Z,98776.66
2022-08-28T23:01:58.735Z,98778.47
2022-08-28T23:07:20.539Z,98790.75
2022-08-28T23:12:42.749Z,98788.66
2022-08-28T23:18:04.593Z,98795.34
2022-08-28T23:23:26.348Z,98788.38
2022-08-28T23:28:48.186Z,98790.88
2022-08-28T23:34:10.082Z,98784.44
2022-08-28T23:39:32.622Z,98786.44
2022-08-28T23:44:55.004Z,98776.38
2022-08-28T23:50:20.881Z,98776.66
2022-08-28T23:55:42.786Z,98765.19
